createdAt,value
2023-02-16T00:02:01.369Z,102162.97
2023-02-16T00:04:35.220Z,102169.25
2023-02-16T00:07:24.494Z,102176.53
2023-02-16T00:09:52.647Z,102174.97
2023-02-16T00:12:41.756Z,102180.53
2023-02-16T00:15:23.803Z,102175.25
2023-02-16T00:17:52.765Z,102187.38
2023-02-16T00:20:22.291Z,102183.53
2023-02-16T00:22:51.320Z,102179.94
2023-02-16T00:25:23.940Z,102185.53
2023-02-16T00:27:56.025Z,102183.53
2023-02-16T00:30:24.793Z,102185.09
2023-02-16T00:32:56.215Z,102187.88
2023-02-16T00:35:25.775Z,102186.00
2023-02-16T00:37:54.189Z,102191.94
2023-02-16T00:40:22.746Z,102189.38
2023-02-16T00:42:50.696Z,102189.34
2023-02-16T00:45:24.577Z,102185.28
2023-02-16T00:47:54.749Z,102182.38
2023-02-16T00:50:34.680Z,102175.31
2023-02-16T00:53:04.690Z,102174.38
2023-02-16T00:55:54.731Z,102180.09
2023-02-16T00:58:31.500Z,102174.38
2023-02-16T01:01:36.024Z,102177.81
2023-02-16T01:04:12.120Z,102171.25
2023-02-16T01:07:04.198Z,102173.81
2023-02-16T01:09:52.226Z,102173.38
2023-02-16T01:12:22.605Z,102172.97
2023-02-16T01:14:55.086Z,102169.53
2023-02-16T01:17:24.799Z,102183.22
2023-02-16T01:19:56.996Z,102176.38
2023-02-16T01:22:25.726Z,102182.28
2023-02-16T01:24:55.711Z,102183.34
2023-02-16T01:27:25.417Z,102186.53
2023-02-16T01:29:54.257Z,102183.91
2023-02-16T01:32:23.647Z,102184.38
2023-02-16T01:34:52.278Z,102185.38
2023-02-16T01:37:27.217Z,102183.94
2023-02-16T01:40:00.769Z,102192.22
2023-02-16T01:42:54.075Z,102188.50
2023-02-16T01:45:47.314Z,102188.72
2023-02-16T01:48:27.170Z,102188.69
2023-02-16T01:51:21.788Z,102178.88
2023-02-16T01:54:00.909Z,102183.41
2023-02-16T01:56:37.698Z,102191.59
2023-02-16T01:59:34.284Z,102193.59
2023-02-16T02:02:05.733Z,102185.25
2023-02-16T02:05:18.960Z,102191.72
2023-02-16T02:07:52.631Z,102200.09
2023-02-16T02:10:34.887Z,102195.94
2023-02-16T02:13:14.041Z,102193.13
2023-02-16T02:15:46.687Z,102193.84
2023-02-16T02:18:17.637Z,102206.97
2023-02-16T02:21:27.711Z,102206.78
2023-02-16T02:24:36.831Z,102207.41
2023-02-16T02:27:28.090Z,102215.75
2023-02-16T02:30:06.800Z,102217.66
2023-02-16T02:33:16.757Z,102221.31
2023-02-16T02:36:22.852Z,102226.88
2023-02-16T02:39:13.766Z,102224.19
2023-02-16T02:42:14.155Z,102226.56
2023-02-16T02:44:51.052Z,102220.72
2023-02-16T02:47:20.132Z,102224.47
2023-02-16T02:49:56.023Z,102229.56
2023-02-16T02:52:26.176Z,102224.22
2023-02-16T02:55:18.116Z,102221.78
2023-02-16T02:58:09.071Z,102226.00
2023-02-16T03:00:51.955Z,102223.97
2023-02-16T03:03:34.194Z,102225.16
2023-02-16T03:06:11.916Z,102230.59
2023-02-16T03:08:45.262Z,102231.97
2023-02-16T03:11:40.625Z,102233.91
2023-02-16T03:14:16.830Z,102225.84
2023-02-16T03:17:13.673Z,102233.75
2023-02-16T03:20:06.000Z,102236.66
2023-02-16T03:22:55.940Z,102236.25
2023-02-16T03:25:49.682Z,102232.75
2023-02-16T03:28:41.680Z,102228.53
2023-02-16T03:31:15.428Z,102242.91
2023-02-16T03:33:49.615Z,102235.78
2023-02-16T03:36:31.341Z,102234.66
2023-02-16T03:39:05.070Z,102232.72
2023-02-16T03:41:53.989Z,102233.22
2023-02-16T03:44:22.366Z,102237.78
2023-02-16T03:46:55.173Z,102238.66
2023-02-16T03:49:24.121Z,102228.59
2023-02-16T03:51:54.794Z,102244.91
2023-02-16T03:54:23.187Z,102247.66
2023-02-16T03:57:00.091Z,102249.13
2023-02-16T03:59:28.226Z,102253.56
2023-02-16T04:01:58.300Z,102246.81
2023-02-16T04:04:28.701Z,102244.06
2023-02-16T04:06:59.228Z,102243.00
2023-02-16T04:09:30.623Z,102241.66
2023-02-16T04:12:20.365Z,102247.22
2023-02-16T04:14:49.550Z,102246.81
2023-02-16T04:17:20.301Z,102255.03
2023-02-16T04:19:51.208Z,102257.88
2023-02-16T04:25:11.116Z,102272.53
2023-02-16T04:27:44.889Z,102265.78
2023-02-16T04:30:18.867Z,102263.97
2023-02-16T04:32:52.434Z,102274.97
2023-02-16T04:35:21.282Z,102279.91
2023-02-16T04:37:56.655Z,102288.69
2023-02-16T04:40:33.743Z,102283.69
2023-02-16T04:43:04.712Z,102294.53
2023-02-16T04:45:44.661Z,102292.13
2023-02-16T04:48:17.757Z,102289.53
2023-02-16T04:50:51.075Z,102295.47
2023-02-16T04:56:19.182Z,102301.69
2023-02-16T04:58:49.668Z,102299.41
2023-02-16T05:01:26.681Z,102299.84
2023-02-16T05:04:00.271Z,102305.09
2023-02-16T05:06:31.153Z,102300.75
2023-02-16T05:09:03.756Z,102299.38
2023-02-16T05:11:51.232Z,102314.41
2023-02-16T05:14:47.628Z,102309.19
2023-02-16T05:17:30.797Z,102311.91
2023-02-16T05:20:02.591Z,102320.84
2023-02-16T05:22:44.005Z,102315.00
2023-02-16T05:28:02.762Z,102316.66
2023-02-16T05:30:31.539Z,102321.25
2023-02-16T05:33:03.954Z,102321.88
2023-02-16T05:35:35.464Z,102320.88
2023-02-16T05:38:08.014Z,102322.84
2023-02-16T05:43:31.251Z,102324.66
2023-02-16T05:46:01.076Z,102329.41
2023-02-16T05:48:29.730Z,102328.53
2023-02-16T05:50:58.446Z,102326.97
2023-02-16T05:53:28.320Z,102336.06
2023-02-16T05:55:59.617Z,102332.44
2023-02-16T05:58:28.846Z,102334.16
2023-02-16T06:00:59.612Z,102340.28
2023-02-16T06:03:33.921Z,102342.28
2023-02-16T06:06:15.545Z,102340.13
2023-02-16T06:08:52.624Z,102338.38
2023-02-16T06:11:37.452Z,102345.56
2023-02-16T06:14:17.659Z,102339.44
2023-02-16T06:16:49.577Z,102343.84
2023-02-16T06:19:20.996Z,102347.56
2023-02-16T06:21:49.804Z,102336.56
2023-02-16T06:24:19.584Z,102338.16
2023-02-16T06:26:50.815Z,102345.22
2023-02-16T06:29:19.162Z,102344.00
2023-02-16T06:31:48.282Z,102339.22
2023-02-16T06:34:19.351Z,102346.13
2023-02-16T06:36:50.648Z,102344.34
2023-02-16T06:39:19.407Z,102347.19
2023-02-16T06:41:48.752Z,102348.28
2023-02-16T06:44:17.714Z,102347.00
2023-02-16T06:46:50.353Z,102344.66
2023-02-16T06:49:21.622Z,102347.25
2023-02-16T06:51:51.104Z,102354.09
2023-02-16T06:54:22.362Z,102357.16
2023-02-16T06:56:55.778Z,102351.44
2023-02-16T07:02:18.134Z,102351.97
2023-02-16T07:04:48.572Z,102347.75
2023-02-16T07:07:17.256Z,102341.75
2023-02-16T07:10:02.752Z,102337.59
2023-02-16T07:12:34.323Z,102342.88
2023-02-16T07:15:10.301Z,102338.03
2023-02-16T07:17:40.180Z,102334.69
2023-02-16T07:20:10.934Z,102336.66
2023-02-16T07:22:43.244Z,102331.53
2023-02-16T07:28:08.275Z,102331.16
2023-02-16T07:33:50.604Z,102340.34
2023-02-16T07:36:20.542Z,102344.31
2023-02-16T07:38:54.659Z,102337.34
2023-02-16T07:41:38.217Z,102347.94
2023-02-16T07:44:15.992Z,102353.00
2023-02-16T08:04:11.691Z,102356.59
2023-02-16T08:19:33.197Z,102361.00
2023-02-16T08:22:19.132Z,102349.06
2023-02-16T08:25:04.074Z,102355.22
2023-02-16T08:37:01.128Z,102355.72
2023-02-16T08:49:36.828Z,102349.00
2023-02-16T09:01:14.980Z,102354.00
2023-02-16T09:03:48.505Z,102345.88
2023-02-16T09:06:30.608Z,102342.22
2023-02-16T09:08:59.526Z,102348.94
2023-02-16T09:11:27.957Z,102348.19
2023-02-16T09:13:59.039Z,102348.03
2023-02-16T09:16:34.469Z,102333.56
2023-02-16T09:19:02.841Z,102347.44
2023-02-16T09:21:34.874Z,102338.50
2023-02-16T09:24:04.097Z,102330.16
2023-02-16T09:26:38.798Z,102339.19
2023-02-16T09:29:07.234Z,102337.31
2023-02-16T09:31:37.710Z,102332.41
2023-02-16T09:34:21.976Z,102334.16
2023-02-16T09:36:51.337Z,102334.72
2023-02-16T09:39:20.764Z,102339.75
2023-02-16T09:41:57.270Z,102334.03
2023-02-16T09:44:41.621Z,102329.13
2023-02-16T09:47:31.289Z,102336.03
2023-02-16T09:50:43.865Z,102326.13
2023-02-16T09:53:36.332Z,102328.81
2023-02-16T09:56:19.100Z,102326.72
2023-02-16T09:58:57.921Z,102332.78
2023-02-16T10:01:40.403Z,102327.22
2023-02-16T10:04:24.649Z,102312.28
2023-02-16T10:06:52.521Z,102316.56
2023-02-16T10:09:21.546Z,102307.44
2023-02-16T10:11:56.729Z,102309.25
2023-02-16T10:14:47.146Z,102320.25
2023-02-16T10:17:45.557Z,102315.34
2023-02-16T10:20:19.076Z,102314.97
2023-02-16T10:22:52.906Z,102309.84
2023-02-16T10:25:49.121Z,102310.94
2023-02-16T10:28:43.133Z,102307.31
2023-02-16T10:31:18.382Z,102307.44
2023-02-16T10:34:09.800Z,102302.50
2023-02-16T10:36:55.399Z,102293.97
2023-02-16T10:39:37.086Z,102300.78
2023-02-16T10:42:20.624Z,102298.97
2023-02-16T10:45:14.734Z,102299.75
2023-02-16T10:47:46.227Z,102302.03
2023-02-16T10:50:27.428Z,102295.03
2023-02-16T10:53:01.053Z,102291.59
2023-02-16T10:55:28.949Z,102297.41
2023-02-16T10:58:00.879Z,102313.19
2023-02-16T11:00:52.092Z,102310.69
2023-02-16T11:03:30.053Z,102301.47
2023-02-16T11:06:16.369Z,102305.59
2023-02-16T11:08:51.798Z,102311.88
2023-02-16T11:11:26.632Z,102306.75
2023-02-16T11:14:09.682Z,102305.06
2023-02-16T11:16:37.395Z,102303.50
2023-02-16T11:19:18.923Z,102302.66
2023-02-16T11:21:48.135Z,102301.69
2023-02-16T11:24:29.657Z,102299.56
2023-02-16T11:27:16.100Z,102297.91
2023-02-16T11:29:45.081Z,102297.88
2023-02-16T11:32:16.428Z,102297.19
2023-02-16T11:35:07.412Z,102295.31
2023-02-16T11:37:37.093Z,102298.69
2023-02-16T11:40:20.140Z,102300.41
2023-02-16T11:42:52.386Z,102305.97
2023-02-16T11:45:28.731Z,102299.66
2023-02-16T11:48:17.003Z,102299.53
2023-02-16T11:51:28.210Z,102293.22
2023-02-16T11:54:18.213Z,102296.91
2023-02-16T11:57:16.495Z,102296.13
2023-02-16T11:59:45.805Z,102290.03
2023-02-16T12:02:38.348Z,102296.22
2023-02-16T12:06:08.644Z,102300.16
2023-02-16T12:09:09.402Z,102293.81
2023-02-16T12:12:20.915Z,102301.75
2023-02-16T12:15:27.592Z,102303.25
2023-02-16T12:18:48.402Z,102307.66
2023-02-16T12:21:46.326Z,102310.34
2023-02-16T12:24:46.170Z,102301.38
2023-02-16T12:27:28.998Z,102304.81
2023-02-16T12:30:20.426Z,102300.28
2023-02-16T12:33:22.375Z,102301.88
2023-02-16T12:36:02.491Z,102293.28
2023-02-16T12:38:58.628Z,102285.63
2023-02-16T12:41:58.564Z,102291.41
2023-02-16T12:44:45.447Z,102297.81
2023-02-16T12:47:21.852Z,102290.66
2023-02-16T12:50:04.297Z,102289.09
2023-02-16T12:52:46.535Z,102288.31
2023-02-16T12:55:44.345Z,102284.56
2023-02-16T12:58:25.685Z,102283.59
2023-02-16T13:01:02.142Z,102291.25
2023-02-16T13:03:41.489Z,102274.13
2023-02-16T13:06:18.849Z,102276.59
2023-02-16T13:08:58.914Z,102278.66
2023-02-16T13:11:36.553Z,102277.75
2023-02-16T13:14:16.815Z,102270.38
2023-02-16T13:16:44.990Z,102275.47
2023-02-16T13:19:17.427Z,102284.16
2023-02-16T13:22:07.189Z,102287.78
2023-02-16T13:25:15.481Z,102276.88
2023-02-16T13:28:27.859Z,102280.22
2023-02-16T13:31:45.248Z,102270.72
2023-02-16T13:34:12.935Z,102277.84
2023-02-16T13:37:19.513Z,102272.16
2023-02-16T13:40:06.429Z,102272.22
2023-02-16T13:42:53.118Z,102279.84
2023-02-16T13:45:26.573Z,102276.03
2023-02-16T13:47:56.803Z,102267.38
2023-02-16T13:50:29.444Z,102267.31
2023-02-16T13:53:20.445Z,102267.09
2023-02-16T13:55:50.972Z,102270.69
2023-02-16T13:58:29.192Z,102269.44
2023-02-16T14:00:59.739Z,102264.22
2023-02-16T14:03:39.356Z,102264.75
2023-02-16T14:06:29.610Z,102267.41
2023-02-16T14:09:12.833Z,102259.97
2023-02-16T14:11:53.700Z,102264.91
2023-02-16T14:14:32.895Z,102265.59
2023-02-16T14:17:17.996Z,102261.59
2023-02-16T14:20:25.250Z,102272.78
2023-02-16T14:23:00.398Z,102268.94
2023-02-16T14:25:35.812Z,102265.03
2023-02-16T14:28:04.513Z,102261.06
2023-02-16T14:30:51.356Z,102268.94
2023-02-16T14:33:35.055Z,102258.69
2023-02-16T14:36:03.519Z,102267.63
2023-02-16T14:38:36.263Z,102261.03
2023-02-16T14:41:09.221Z,102258.00
2023-02-16T14:43:45.144Z,102263.13
2023-02-16T14:46:46.539Z,102253.91
2023-02-16T14:49:54.292Z,102247.88
2023-02-16T14:52:29.867Z,102252.19
2023-02-16T14:55:26.474Z,102252.91
2023-02-16T14:58:22.586Z,102256.94
2023-02-16T15:01:13.522Z,102256.78
2023-02-16T15:03:50.599Z,102253.91
2023-02-16T15:06:46.054Z,102252.81
2023-02-16T15:09:27.525Z,102255.78
2023-02-16T15:12:24.381Z,102249.97
2023-02-16T15:14:59.502Z,102245.72
2023-02-16T15:17:36.311Z,102247.41
2023-02-16T15:20:44.826Z,102242.81
2023-02-16T15:23:36.337Z,102246.19
2023-02-16T15:26:19.766Z,102235.59
2023-02-16T15:29:00.448Z,102234.34
2023-02-16T15:31:37.461Z,102243.53
2023-02-16T15:34:15.136Z,102237.13
2023-02-16T15:36:48.276Z,102244.13
2023-02-16T15:39:45.198Z,102248.38
2023-02-16T15:42:28.899Z,102241.88
2023-02-16T15:44:57.868Z,102253.41
2023-02-16T15:47:27.529Z,102247.88
2023-02-16T15:49:55.371Z,102251.84
2023-02-16T15:52:35.316Z,102249.84
2023-02-16T15:55:09.519Z,102245.81
2023-02-16T15:57:40.186Z,102246.41
2023-02-16T16:00:22.380Z,102247.91
2023-02-16T16:02:54.207Z,102253.19
2023-02-16T16:05:29.520Z,102255.47
2023-02-16T16:07:58.842Z,102252.03
2023-02-16T16:10:32.747Z,102255.47
2023-02-16T16:13:06.814Z,102253.91
2023-02-16T16:15:41.078Z,102247.59
2023-02-16T16:18:50.519Z,102238.66
2023-02-16T16:21:20.991Z,102239.34
2023-02-16T16:24:00.147Z,102237.22
2023-02-16T16:26:31.092Z,102234.91
2023-02-16T16:29:00.209Z,102224.69
2023-02-16T16:31:28.401Z,102227.88
2023-02-16T16:34:10.147Z,102226.59
2023-02-16T16:36:57.377Z,102228.41
2023-02-16T16:39:31.055Z,102223.66
2023-02-16T16:42:18.570Z,102228.47
2023-02-16T16:44:57.121Z,102219.91
2023-02-16T16:47:30.240Z,102229.59
2023-02-16T16:50:10.184Z,102223.19
2023-02-16T16:52:49.205Z,102219.44
2023-02-16T16:55:27.397Z,102226.88
2023-02-16T16:58:06.098Z,102233.53
2023-02-16T17:00:38.723Z,102229.28
2023-02-16T17:03:15.856Z,102235.94
2023-02-16T17:05:46.524Z,102235.75
2023-02-16T17:08:15.531Z,102230.06
2023-02-16T17:10:45.973Z,102234.38
2023-02-16T17:13:27.016Z,102237.09
2023-02-16T17:19:00.773Z,102232.25
2023-02-16T17:21:29.756Z,102228.00
2023-02-16T17:23:58.052Z,102220.38
2023-02-16T17:26:27.069Z,102231.09
2023-02-16T17:28:58.009Z,102213.44
2023-02-16T17:31:31.699Z,102223.09
2023-02-16T17:34:07.109Z,102225.09
2023-02-16T17:36:38.986Z,102224.31
2023-02-16T17:39:09.027Z,102224.94
2023-02-16T17:41:37.089Z,102223.72
2023-02-16T17:44:05.285Z,102216.38
2023-02-16T17:46:45.895Z,102220.72
2023-02-16T17:49:14.033Z,102219.69
2023-02-16T17:51:44.977Z,102226.47
2023-02-16T17:54:14.918Z,102235.16
2023-02-16T17:56:46.293Z,102228.81
2023-02-16T17:59:18.987Z,102217.91
2023-02-16T18:01:47.145Z,102218.09
2023-02-16T18:04:14.891Z,102213.06
2023-02-16T18:06:43.119Z,102217.56
2023-02-16T18:09:25.002Z,102213.50
2023-02-16T18:11:53.018Z,102206.22
2023-02-16T18:14:29.436Z,102212.06
2023-02-16T18:17:26.622Z,102210.63
2023-02-16T18:20:11.060Z,102202.56
2023-02-16T18:22:58.710Z,102201.13
2023-02-16T18:25:30.926Z,102197.78
2023-02-16T18:28:01.145Z,102202.06
2023-02-16T18:30:30.521Z,102206.19
2023-02-16T18:33:03.331Z,102204.38
2023-02-16T18:35:34.057Z,102203.91
2023-02-16T18:38:14.753Z,102205.47
2023-02-16T18:40:44.829Z,102206.25
2023-02-16T18:43:13.525Z,102208.44
2023-02-16T18:45:43.932Z,102198.53
2023-02-16T18:48:13.146Z,102198.69
2023-02-16T18:50:46.116Z,102192.59
2023-02-16T18:53:14.614Z,102186.56
2023-02-16T18:55:45.882Z,102193.63
2023-02-16T18:58:21.101Z,102199.66
2023-02-16T19:00:51.469Z,102197.69
2023-02-16T19:03:20.700Z,102195.63
2023-02-16T19:05:51.703Z,102189.91
2023-02-16T19:08:20.016Z,102192.41
2023-02-16T19:10:50.494Z,102181.53
2023-02-16T19:13:18.246Z,102184.97
2023-02-16T19:15:51.751Z,102183.81
2023-02-16T19:18:19.723Z,102183.41
2023-02-16T19:20:49.626Z,102172.03
2023-02-16T19:23:17.952Z,102169.41
2023-02-16T19:25:47.069Z,102166.22
2023-02-16T19:28:14.987Z,102166.13
2023-02-16T19:30:50.193Z,102159.28
2023-02-16T19:33:20.309Z,102161.53
2023-02-16T19:35:48.105Z,102164.88
2023-02-16T19:38:17.008Z,102168.16
2023-02-16T19:40:46.082Z,102161.38
2023-02-16T19:43:14.404Z,102160.94
2023-02-16T19:45:43.386Z,102165.28
2023-02-16T19:48:11.777Z,102164.19
2023-02-16T19:50:41.335Z,102163.47
2023-02-16T19:53:09.179Z,102163.88
2023-02-16T19:58:29.884Z,102170.50
2023-02-16T20:01:14.057Z,102175.25
2023-02-16T20:03:43.535Z,102168.09
2023-02-16T20:06:13.805Z,102169.31
2023-02-16T20:08:42.688Z,102172.03
2023-02-16T20:11:20.158Z,102171.03
2023-02-16T20:13:49.780Z,102163.03
2023-02-16T20:16:19.396Z,102156.19
2023-02-16T20:18:48.556Z,102153.22
2023-02-16T20:21:21.649Z,102150.09
2023-02-16T20:23:53.750Z,102149.94
2023-02-16T20:26:25.238Z,102148.38
2023-02-16T20:28:53.871Z,102146.53
2023-02-16T20:31:25.641Z,102148.88
2023-02-16T20:33:55.840Z,102153.69
2023-02-16T20:36:25.133Z,102146.22
2023-02-16T20:38:55.085Z,102150.25
2023-02-16T20:41:23.470Z,102144.44
2023-02-16T20:43:52.289Z,102138.28
2023-02-16T20:46:24.433Z,102137.03
2023-02-16T20:51:59.493Z,102144.72
2023-02-16T20:54:28.263Z,102153.06
2023-02-16T20:56:56.326Z,102153.69
2023-02-16T20:59:24.153Z,102152.28
2023-02-16T21:01:54.029Z,102145.22
2023-02-16T21:04:37.382Z,102144.16
2023-02-16T21:07:08.208Z,102144.16
2023-02-16T21:09:37.077Z,102140.91
2023-02-16T21:12:07.748Z,102143.50
2023-02-16T21:14:39.426Z,102136.81
2023-02-16T21:17:07.420Z,102132.84
2023-02-16T21:19:41.155Z,102138.19
2023-02-16T21:22:14.799Z,102133.72
2023-02-16T21:24:46.721Z,102136.88
2023-02-16T21:27:15.620Z,102134.94
2023-02-16T21:29:45.725Z,102133.06
2023-02-16T21:32:14.331Z,102129.84
2023-02-16T21:34:45.423Z,102126.81
2023-02-16T21:37:15.275Z,102131.13
2023-02-16T21:40:03.562Z,102136.06
2023-02-16T21:42:36.229Z,102130.94
2023-02-16T21:45:15.260Z,102134.78
2023-02-16T21:48:05.849Z,102134.47
2023-02-16T21:50:39.407Z,102128.63
2023-02-16T21:53:09.991Z,102127.63
2023-02-16T22:01:52.345Z,102127.03
2023-02-16T22:04:22.924Z,102123.00
2023-02-16T22:06:52.194Z,102119.25
2023-02-16T22:09:23.371Z,102115.97
2023-02-16T22:11:51.888Z,102114.94
2023-02-16T22:14:20.183Z,102125.34
2023-02-16T22:16:49.217Z,102129.34
2023-02-16T22:19:19.001Z,102118.59
2023-02-16T22:21:48.718Z,102111.13
2023-02-16T22:24:17.921Z,102122.66
2023-02-16T22:26:48.006Z,102121.19
2023-02-16T22:29:19.618Z,102108.75
2023-02-16T22:31:49.384Z,102115.91
2023-02-16T22:34:24.202Z,102109.16
2023-02-16T22:37:00.947Z,102113.50
2023-02-16T22:39:31.969Z,102103.78
2023-02-16T22:42:00.238Z,102108.03
2023-02-16T22:44:31.386Z,102097.63
2023-02-16T22:46:59.127Z,102091.47
2023-02-16T22:49:26.910Z,102099.66
2023-02-16T22:51:55.644Z,102091.25
2023-02-16T22:54:25.176Z,102085.44
2023-02-16T22:56:57.148Z,102091.88
2023-02-16T22:59:26.185Z,102079.31
2023-02-16T23:02:02.998Z,102084.28
2023-02-16T23:04:32.145Z,102079.22
2023-02-16T23:07:00.004Z,102087.25
2023-02-16T23:09:37.254Z,102082.94
2023-02-16T23:12:05.481Z,102090.63
2023-02-16T23:14:37.278Z,102084.50
2023-02-16T23:17:05.322Z,102086.84
2023-02-16T23:19:33.809Z,102084.66
2023-02-16T23:22:04.343Z,102090.88
2023-02-16T23:24:33.019Z,102088.56
2023-02-16T23:27:05.104Z,102088.41
2023-02-16T23:29:33.763Z,102076.22
2023-02-16T23:32:14.370Z,102064.34
2023-02-16T23:34:58.222Z,102068.34
2023-02-16T23:37:39.197Z,102071.44
2023-02-16T23:40:08.322Z,102071.91
2023-02-16T23:42:36.153Z,102080.47
2023-02-16T23:45:04.644Z,102072.53
2023-02-16T23:47:33.394Z,102077.22
2023-02-16T23:50:02.458Z,102077.75
2023-02-16T23:52:31.298Z,102076.97
2023-02-16T23:55:01.829Z,102075.78
2023-02-16T23:57:30.092Z,102081.53
2023-02-16T23:59:59.033Z,102070.13
